If you wish to contribute or participate in the discussions about articles you are invited to join SKYbrary as a registered user

 Actions

Churchill Falls Airport

From SKYbrary Wiki

CZUM
Airport
ICAO: CZUM – IATA: ZUM
Summary
Name Churchill Falls Airport
Region North America
Territory Canada CA.gif
Location Churchill Falls, Newfoundland and Labrador
Serving Churchill Falls
Elevation 439.522 m
1,442 ft
1,442 ft439.522 m
Coordinates 53° 33' 45.51" N, 64° 6' 22.61" W
Runways
Designator Length Width Surface ROPS
13/31 1676 m5,498.688 ft
46 m150.919 ft
ASP /


METAR
Observation CZUM 151908Z AUTO 22004KT 180V330 9SM -RA FEW012 BKN019 OVC028 05/04 A2970 RMK SLP078
Station Churchill Falls, Nfld.
Date/Time 15 October 2019 19:08:00
Wind direction 220°
Wind speed 04 kts
Lowest cloud amount few clouds
Temperature 5°C
Dew point 4°C
Humidity 93%
QNH hPa
Weather condition light rain